Time;durP1;ratioP1;P1;durP2;ratioP2;P2;SDS_P1;SDS_P2;PMS_P1;PMS_P2;Temp;Humidity;BMP_temperature;BMP_pressure;BME280_temperature;BME280_humidity;BME280_pressure;Samples;Min_cycle;Max_cycle;Signal;HPM_P1;HPM_P2
2022/06/15 00:03:13;;;;;;;9.73;5.72;;;;;;;9.42;93.48;101694.22;10448009;28;20123;-76
2022/06/15 00:08:14;;;;;;;12.07;5.93;;;;;;;9.39;94.12;101687.09;10429719;28;20040;-75
2022/06/15 00:13:17;;;;;;;13.40;7.57;;;;;;;9.32;93.82;101684.88;10468889;28;20079;-76
2022/06/15 00:18:17;;;;;;;20.65;6.32;;;;;;;9.26;94.33;101680.16;10485709;28;20040;-77
2022/06/15 00:23:18;;;;;;;9.38;6.03;;;;;;;9.21;93.84;101690.31;10483932;28;20381;-77
2022/06/15 00:28:19;;;;;;;15.25;7.40;;;;;;;9.15;94.75;101689.91;10485487;28;20093;-77
2022/06/15 00:33:22;;;;;;;14.35;8.02;;;;;;;9.07;94.17;101692.00;10450948;28;20037;-77
2022/06/15 00:38:28;;;;;;;16.17;8.02;;;;;;;8.98;94.87;101683.53;10451113;28;20044;-77
2022/06/15 00:43:35;;;;;;;14.23;7.38;;;;;;;8.89;94.76;101677.69;10450580;28;20395;-77
2022/06/15 00:48:36;;;;;;;16.88;7.68;;;;;;;8.87;95.14;101674.06;10426815;28;20488;-76
2022/06/15 00:53:37;;;;;;;8.77;6.28;;;;;;;8.84;95.82;101682.63;10466292;28;20115;-77
2022/06/15 00:58:38;;;;;;;14.48;7.82;;;;;;;8.82;96.00;101681.63;10466643;28;20033;-77
2022/06/15 01:03:39;;;;;;;10.80;7.70;;;;;;;8.78;95.29;101675.25;10428018;28;20044;-77
2022/06/15 01:08:46;;;;;;;10.45;6.90;;;;;;;8.73;95.66;101668.81;10425442;28;20041;-77
2022/06/15 01:14:18;;;;;;;11.45;7.25;;;;;;;8.69;96.31;101673.75;10408688;28;20044;-77
2022/06/15 01:19:34;;;;;;;13.98;8.68;;;;;;;8.60;96.09;101674.94;10427377;28;20053;-77
2022/06/15 01:25:12;;;;;;;15.00;8.40;;;;;;;8.64;96.72;101661.28;10440276;28;20049;-77
2022/06/15 01:30:15;;;;;;;17.75;9.32;;;;;;;8.67;96.73;101668.41;10445673;28;20037;-77
2022/06/15 01:35:29;;;;;;;13.32;9.30;;;;;;;8.61;97.23;101662.78;10478340;28;20070;-77
2022/06/15 01:40:40;;;;;;;15.98;9.32;;;;;;;8.62;97.18;101660.28;10464609;28;20040;-77
2022/06/15 01:45:40;;;;;;;12.90;8.73;;;;;;;8.62;97.48;101644.63;10398545;28;20057;-77
2022/06/15 01:50:52;;;;;;;15.43;9.40;;;;;;;8.55;97.84;101652.84;10412383;28;20033;-76
2022/06/15 01:55:56;;;;;;;13.05;9.40;;;;;;;8.52;98.37;101660.44;10464984;28;20025;-77
2022/06/15 02:01:16;;;;;;;18.73;10.40;;;;;;;8.50;98.17;101657.72;10378832;28;20486;-77
2022/06/15 02:06:46;;;;;;;22.67;11.73;;;;;;;8.44;98.53;101652.03;10449815;28;20047;-77
2022/06/15 02:11:47;;;;;;;15.95;10.70;;;;;;;8.41;98.35;101645.72;10448327;28;20048;-77
2022/06/15 02:17:06;;;;;;;14.90;10.30;;;;;;;8.45;98.60;101643.41;10470811;28;20463;-77
2022/06/15 02:22:12;;;;;;;14.65;10.20;;;;;;;8.44;99.34;101645.94;10450786;28;20120;-77
2022/06/15 02:27:13;;;;;;;17.50;9.23;;;;;;;8.40;99.18;101650.03;10455539;28;20045;-77
2022/06/15 02:32:15;;;;;;;13.75;10.68;;;;;;;8.29;99.54;101644.09;10455201;28;20444;-77
2022/06/15 02:37:16;;;;;;;15.90;9.93;;;;;;;8.32;99.14;101640.75;10454612;28;20119;-77
2022/06/15 02:42:25;;;;;;;16.83;10.27;;;;;;;8.37;99.55;101636.78;10454201;28;20488;-77
2022/06/15 02:47:27;;;;;;;21.65;11.50;;;;;;;8.40;100.00;101628.28;10390291;28;20548;-77
2022/06/15 02:52:30;;;;;;;15.98;11.13;;;;;;;8.30;99.92;101629.31;10412055;28;20048;-77
2022/06/15 02:57:30;;;;;;;15.88;10.25;;;;;;;8.28;99.63;101626.63;10414604;28;20043;-77
2022/06/15 03:02:32;;;;;;;14.30;10.45;;;;;;;8.30;99.99;101627.63;10414097;28;20045;-77
2022/06/15 03:07:32;;;;;;;12.83;10.37;;;;;;;8.30;100.00;101625.03;10447655;28;20064;-76
2022/06/15 03:12:33;;;;;;;17.73;11.57;;;;;;;8.31;100.00;101626.84;10428779;28;20124;-76
2022/06/15 03:17:34;;;;;;;15.57;10.13;;;;;;;8.26;100.00;101629.91;10447392;28;20383;-77
2022/06/15 03:22:34;;;;;;;21.17;13.23;;;;;;;8.16;100.00;101628.38;10446113;28;20045;-77
2022/06/15 03:27:35;;;;;;;17.10;12.88;;;;;;;8.16;99.90;101626.66;10446597;28;20362;-77
2022/06/15 03:32:35;;;;;;;16.60;11.25;;;;;;;8.11;100.00;101622.84;10446181;28;20350;-77
2022/06/15 03:37:37;;;;;;;15.95;12.13;;;;;;;8.13;100.00;101631.66;10429266;28;20828;-77
2022/06/15 03:42:41;;;;;;;14.55;12.13;;;;;;;8.17;100.00;101628.47;10427368;28;20488;-77
2022/06/15 03:47:41;;;;;;;15.07;11.38;;;;;;;8.18;100.00;101635.50;10443058;28;20033;-76
2022/06/15 03:52:42;;;;;;;19.17;11.55;;;;;;;8.23;100.00;101636.72;10468921;28;20047;-77
2022/06/15 03:57:42;;;;;;;15.90;13.98;;;;;;;8.38;100.00;101646.41;10452767;28;20049;-76
2022/06/15 04:02:45;;;;;;;19.23;11.45;;;;;;;8.50;100.00;101647.28;10485190;28;20036;-77
2022/06/15 04:13:05;;;;;;;20.95;11.45;;;;;;;8.75;100.00;101638.50;10485314;28;20484;-77
2022/06/15 04:18:06;;;;;;;19.50;12.82;;;;;;;8.87;100.00;101641.06;10480814;28;20064;-76
2022/06/15 04:23:12;;;;;;;15.23;10.88;;;;;;;9.12;100.00;101640.09;10464845;28;20634;-76
2022/06/15 04:28:13;;;;;;;18.50;10.73;;;;;;;9.60;100.00;101639.66;10450875;28;20119;-75
2022/06/15 04:33:14;;;;;;;15.97;9.00;;;;;;;10.16;100.00;101630.94;10443849;28;20047;-78
2022/06/15 04:38:15;;;;;;;10.80;8.43;;;;;;;10.56;100.00;101632.50;10407380;28;20040;-77
2022/06/15 04:43:15;;;;;;;15.63;8.30;;;;;;;10.97;100.00;101628.81;10443235;28;20052;-77
2022/06/15 04:48:16;;;;;;;12.98;7.35;;;;;;;11.40;99.21;101627.72;10442958;28;20045;-77
2022/06/15 04:53:16;;;;;;;11.30;7.38;;;;;;;11.88;93.28;101626.84;10438282;28;20044;-77
2022/06/15 04:58:17;;;;;;;14.30;7.30;;;;;;;12.40;87.24;101630.47;10441451;28;20416;-76
2022/06/15 05:03:19;;;;;;;12.88;6.43;;;;;;;13.13;82.10;101632.41;10441040;28;20037;-77
2022/06/15 05:08:21;;;;;;;15.80;7.18;;;;;;;13.92;78.87;101637.91;10441345;28;20036;-76
2022/06/15 05:13:22;;;;;;;11.63;6.38;;;;;;;14.81;73.95;101629.56;10424721;28;20033;-76
2022/06/15 05:18:22;;;;;;;7.97;5.53;;;;;;;15.68;68.30;101631.34;10422150;28;20033;-79
2022/06/15 05:23:24;;;;;;;9.73;5.10;;;;;;;16.78;63.51;101631.81;10440867;28;20107;-77
2022/06/15 05:28:25;;;;;;;11.60;5.07;;;;;;;17.64;58.45;101629.28;10420352;28;20171;-78
2022/06/15 05:33:27;;;;;;;8.87;4.80;;;;;;;18.12;59.95;101621.03;10465541;28;20492;-77
2022/06/15 05:38:27;;;;;;;8.13;4.72;;;;;;;19.03;54.89;101624.34;10482926;28;20040;-77
2022/06/15 05:43:28;;;;;;;6.20;4.50;;;;;;;19.64;51.55;101630.19;10423799;28;20453;-77
2022/06/15 05:48:29;;;;;;;6.30;5.00;;;;;;;20.09;51.01;101631.19;10411062;28;20060;-78
2022/06/15 05:53:30;;;;;;;7.83;4.47;;;;;;;20.31;51.66;101636.94;10421948;28;20049;-77
2022/06/15 05:58:31;;;;;;;13.75;5.35;;;;;;;21.12;47.87;101630.41;10459035;28;20045;-77
2022/06/15 06:03:31;;;;;;;10.03;6.13;;;;;;;21.33;49.46;101623.63;10482748;28;20456;-77
2022/06/15 06:08:32;;;;;;;22.47;7.40;;;;;;;21.69;47.11;101631.28;10464583;28;20041;-78
2022/06/15 06:13:32;;;;;;;16.20;5.87;;;;;;;22.20;45.91;101627.47;10463321;28;20506;-77
2022/06/15 06:18:33;;;;;;;9.80;4.67;;;;;;;22.70;44.61;101623.56;10463687;28;20071;-77
2022/06/15 06:23:34;;;;;;;11.63;5.30;;;;;;;23.03;44.53;101622.97;10463695;28;20041;-77
2022/06/15 06:28:38;;;;;;;8.73;4.65;;;;;;;23.75;43.05;101624.31;10463146;28;20075;-78
2022/06/15 06:33:39;;;;;;;10.93;4.72;;;;;;;23.95;42.50;101628.88;10411030;28;20033;-77
2022/06/15 06:38:39;;;;;;;8.17;5.07;;;;;;;24.39;41.38;101637.06;10414911;28;20057;-78
2022/06/15 06:43:40;;;;;;;9.77;5.63;;;;;;;24.52;40.78;101629.97;10459610;28;20499;-77
2022/06/15 06:48:40;;;;;;;12.30;5.83;;;;;;;24.88;40.49;101639.84;10479079;28;20037;-79
2022/06/15 06:53:41;;;;;;;7.43;4.53;;;;;;;25.20;40.88;101641.63;10464321;28;20063;-78
2022/06/15 06:58:42;;;;;;;13.85;5.93;;;;;;;25.56;39.40;101640.69;10472593;28;20048;-76
2022/06/15 07:03:42;;;;;;;7.07;3.95;;;;;;;26.34;37.49;101634.13;10452971;28;20060;-76
2022/06/15 07:08:43;;;;;;;14.32;5.03;;;;;;;26.04;39.34;101636.03;10468440;28;20128;-76
2022/06/15 07:13:44;;;;;;;12.43;6.18;;;;;;;26.68;37.48;101636.59;10492423;28;20044;-76
2022/06/15 07:18:45;;;;;;;;;;;;;;;26.90;38.05;101644.50;10455621;28;20041;-76
2022/06/15 07:23:49;;;;;;;11.85;5.57;;;;;;;27.54;35.29;101642.13;10423442;28;20399;-75
2022/06/15 07:28:52;;;;;;;8.85;4.63;;;;;;;27.56;35.73;101647.50;10433052;28;20388;-75
2022/06/15 07:33:53;;;;;;;6.38;3.78;;;;;;;28.04;35.81;101648.75;10428562;28;20045;-76
2022/06/15 07:38:53;;;;;;;;;;;;;;;28.27;35.16;101645.75;10428528;28;20120;-76
2022/06/15 07:43:54;;;;;;;7.80;5.13;;;;;;;28.23;37.08;101641.31;10474768;28;19917;-77
2022/06/15 07:54:15;;;;;;;17.42;6.72;;;;;;;29.04;33.85;101638.31;10483405;28;19920;-79
2022/06/15 07:59:15;;;;;;;8.68;5.00;;;;;;;28.98;34.16;101639.28;10467734;28;20395;-78
2022/06/15 08:04:16;;;;;;;12.23;4.55;;;;;;;29.24;33.26;101632.53;10449051;28;20072;-77
2022/06/15 08:09:16;;;;;;;;;;;;;;;29.61;33.27;101644.47;10449415;28;20046;-77
2022/06/15 08:14:17;;;;;;;24.63;5.33;;;;;;;30.03;33.36;101640.91;10450605;28;20685;-76
2022/06/15 08:19:18;;;;;;;11.55;4.65;;;;;;;30.23;30.51;101636.88;10466922;28;20068;-77
2022/06/15 08:24:21;;;;;;;8.25;3.92;;;;;;;30.17;30.64;101635.25;10466162;28;20530;-77
2022/06/15 08:29:21;;;;;;;8.90;4.20;;;;;;;29.88;31.56;101632.22;10408980;28;20079;-76
2022/06/15 08:34:22;;;;;;;;;;;;;;;30.25;30.06;101640.44;10402584;28;20508;-77
2022/06/15 08:39:22;;;;;;;7.93;4.67;;;;;;;29.77;30.18;101633.38;10385645;28;20340;-77
2022/06/15 08:44:47;;;;;;;8.98;3.53;;;;;;;30.18;30.30;101639.72;10368611;28;20104;-77
2022/06/15 08:49:50;;;;;;;9.73;4.22;;;;;;;30.57;31.83;101641.50;10443159;28;20055;-78
2022/06/15 08:54:51;;;;;;;8.98;3.33;;;;;;;30.79;29.46;101641.91;10467101;28;20109;-78
2022/06/15 08:59:57;;;;;;;;;;;;;;;30.42;30.55;101640.94;10484496;28;20101;-78
2022/06/15 09:05:39;;;;;;;7.35;4.28;;;;;;;30.37;29.04;101632.06;10483663;28;19920;-76
2022/06/15 09:10:50;;;;;;;10.57;3.17;;;;;;;30.31;30.71;101629.50;10274316;28;20045;-78
2022/06/15 09:16:18;;;;;;;11.32;3.92;;;;;;;30.65;30.02;101634.13;10401460;28;20040;-77
2022/06/15 09:21:25;;;;;;;9.50;3.58;;;;;;;31.25;28.52;101628.16;10483541;28;20071;-81
2022/06/15 09:26:29;;;;;;;6.65;3.22;;;;;;;31.46;28.13;101632.06;10449789;28;20078;-80
2022/06/15 09:31:57;;;;;;;13.63;4.28;;;;;;;31.02;27.03;101629.63;10448363;28;20040;-77
2022/06/15 09:36:58;;;;;;;9.60;4.57;;;;;;;30.82;29.36;101625.63;10468035;28;20039;-77
2022/06/15 09:42:21;;;;;;;;;;;;;;;31.17;29.64;101620.22;10475257;28;20058;-77
2022/06/15 09:47:44;;;;;;;12.85;5.57;;;;;;;31.04;29.82;101625.94;10469930;28;19920;-77
2022/06/15 09:53:05;;;;;;;7.07;4.10;;;;;;;31.15;29.63;101616.66;10466694;28;20044;-77
2022/06/15 09:58:07;;;;;;;7.57;3.75;;;;;;;31.20;27.96;101612.94;10481709;28;20062;-77
2022/06/15 10:03:26;;;;;;;7.18;3.78;;;;;;;31.12;28.22;101609.53;10462784;28;20054;-79
2022/06/15 10:08:26;;;;;;;9.13;4.90;;;;;;;31.17;29.43;101609.41;10446506;28;20082;-80
2022/06/15 10:13:30;;;;;;;7.75;4.10;;;;;;;31.76;28.30;101605.09;10463383;28;20439;-79
2022/06/15 10:18:32;;;;;;;9.50;4.57;;;;;;;31.88;28.05;101606.56;10465862;28;20611;-79
2022/06/15 10:23:49;;;;;;;9.32;4.60;;;;;;;32.28;26.68;101616.13;10464962;28;20434;-80
2022/06/15 10:28:49;;;;;;;9.02;3.35;;;;;;;32.62;27.07;101611.44;10482331;28;20048;-80
2022/06/15 10:33:50;;;;;;;;;;;;;;;33.14;26.16;101610.59;10485493;28;20160;-79
2022/06/15 10:38:54;;;;;;;12.80;5.27;;;;;;;32.17;26.04;101610.16;10490936;28;19920;-80
2022/06/15 10:43:55;;;;;;;10.23;4.22;;;;;;;31.38;27.60;101597.13;10472567;28;20036;-80
2022/06/15 10:48:57;;;;;;;9.65;3.55;;;;;;;31.68;28.92;101596.28;10471986;28;20098;-80
2022/06/15 10:54:16;;;;;;;12.52;4.47;;;;;;;32.16;27.38;101609.28;10472953;28;20044;-80
2022/06/15 11:04:45;;;;;;;11.57;4.88;;;;;;;32.33;27.87;101597.94;10461174;28;20424;-80
2022/06/15 11:09:54;;;;;;;9.10;5.18;;;;;;;32.50;28.10;101597.38;10488777;28;20539;-79
2022/06/15 11:14:55;;;;;;;11.07;4.93;;;;;;;32.17;26.41;101593.94;10471784;28;20044;-80
2022/06/15 11:19:56;;;;;;;5.15;3.45;;;;;;;32.19;25.84;101590.22;10488627;28;20036;-80
2022/06/15 11:25:02;;;;;;;7.05;4.07;;;;;;;32.65;25.37;101573.41;10471091;28;20120;-80
2022/06/15 11:30:25;;;;;;;7.15;3.83;;;;;;;32.15;27.26;101563.31;10454870;28;20043;-80
2022/06/15 11:35:47;;;;;;;13.30;5.38;;;;;;;32.18;26.27;101568.63;10489309;28;20043;-79
2022/06/15 11:40:56;;;;;;;10.43;4.78;;;;;;;31.92;25.89;101563.09;10470226;28;20171;-79
2022/06/15 11:46:24;;;;;;;9.35;3.80;;;;;;;31.76;28.65;101569.91;10468239;28;20032;-79
2022/06/15 11:51:33;;;;;;;5.18;3.17;;;;;;;32.46;27.74;101559.63;10470247;28;20119;-79
2022/06/15 11:56:40;;;;;;;7.63;3.45;;;;;;;33.38;26.69;101551.88;10488269;28;20064;-80
2022/06/15 12:02:18;;;;;;;5.82;3.80;;;;;;;34.01;24.78;101554.03;10470563;28;20040;-80
2022/06/15 12:07:21;;;;;;;8.80;2.95;;;;;;;33.55;26.35;101559.41;10487204;28;20032;-79
2022/06/15 12:12:38;;;;;;;9.38;4.00;;;;;;;31.60;27.55;101558.66;10486709;28;20511;-80
2022/06/15 12:17:45;;;;;;;5.35;3.00;;;;;;;31.96;28.23;101571.13;10487006;28;20395;-79
2022/06/15 12:23:13;;;;;;;9.60;4.28;;;;;;;32.85;27.12;101551.09;10485973;28;20093;-80
2022/06/15 12:28:40;;;;;;;6.15;2.92;;;;;;;32.26;29.52;101549.41;10485829;28;20135;-80
2022/06/15 12:34:19;;;;;;;5.97;2.85;;;;;;;32.30;27.99;101549.31;10468333;28;20118;-80
2022/06/15 12:39:44;;;;;;;8.00;3.03;;;;;;;32.78;26.97;101538.66;10417933;28;20059;-80
2022/06/15 12:44:57;;;;;;;5.57;3.08;;;;;;;32.81;25.73;101544.84;10422829;28;20041;-78
2022/06/15 12:50:07;;;;;;;11.32;4.30;;;;;;;32.90;27.85;101542.78;10462145;28;20033;-78
2022/06/15 12:55:33;;;;;;;11.80;5.13;;;;;;;32.58;26.25;101553.78;10478466;28;20417;-78
2022/06/15 13:00:36;;;;;;;10.77;3.78;;;;;;;32.15;27.58;101550.66;10467908;28;20150;-78
2022/06/15 13:05:38;;;;;;;10.93;4.70;;;;;;;30.93;28.83;101544.25;10432687;28;20391;-77
2022/06/15 13:10:53;;;;;;;6.35;3.45;;;;;;;30.02;30.37;101542.91;10470809;28;20120;-78
2022/06/15 13:15:55;;;;;;;7.75;4.32;;;;;;;30.68;29.24;101541.34;10480624;28;20056;-77
2022/06/15 13:20:59;;;;;;;7.10;3.42;;;;;;;31.61;27.91;101547.78;10436562;28;20155;-78
2022/06/15 13:26:38;;;;;;;6.13;2.58;;;;;;;32.03;28.18;101533.00;10407418;28;20036;-78
2022/06/15 13:31:44;;;;;;;7.00;3.67;;;;;;;32.43;28.30;101544.34;10463089;28;20477;-78
2022/06/15 13:37:23;;;;;;;6.47;3.17;;;;;;;32.61;26.60;101544.66;10457489;28;20036;-78
2022/06/15 13:42:46;;;;;;;8.43;3.50;;;;;;;32.39;26.05;101545.38;10416998;28;20041;-78
2022/06/15 13:48:13;;;;;;;11.13;3.63;;;;;;;31.21;26.47;101543.53;10465759;28;20040;-77
2022/06/15 13:53:44;;;;;;;5.45;3.22;;;;;;;31.31;30.25;101534.22;10454798;28;20041;-78
2022/06/15 13:58:48;;;;;;;7.47;3.20;;;;;;;31.92;26.79;101530.63;10420580;28;20396;-77
2022/06/15 14:04:16;;;;;;;6.32;3.15;;;;;;;32.05;27.62;101530.22;10482720;28;20094;-78
2022/06/15 14:09:24;;;;;;;6.85;3.15;;;;;;;32.13;28.34;101538.13;10447395;28;20050;-78
2022/06/15 14:14:27;;;;;;;10.85;2.80;;;;;;;32.23;27.02;101532.31;10455873;28;20126;-78
2022/06/15 14:20:00;;;;;;;8.68;3.80;;;;;;;32.44;27.87;101531.72;10487908;28;20400;-78
2022/06/15 14:25:08;;;;;;;5.93;4.05;;;;;;;30.09;28.72;101524.75;10425440;28;20044;-78
2022/06/15 14:30:22;;;;;;;5.72;2.88;;;;;;;30.03;29.62;101525.78;10475111;28;20145;-77
2022/06/15 14:35:22;;;;;;;12.55;3.47;;;;;;;28.89;32.71;101520.06;10487819;28;20028;-78
2022/06/15 14:40:36;;;;;;;20.67;11.48;;;;;;;28.93;33.25;101529.84;10473419;28;20032;-77
2022/06/15 14:45:43;;;;;;;8.48;4.18;;;;;;;28.48;30.20;101544.97;10492355;28;20046;-76
2022/06/15 14:50:44;;;;;;;9.95;3.28;;;;;;;27.82;32.91;101531.56;10486945;28;20392;-75
2022/06/15 14:55:44;;;;;;;8.27;3.40;;;;;;;28.19;31.04;101535.56;10497618;28;20050;-77
2022/06/15 15:00:45;;;;;;;8.38;3.17;;;;;;;27.68;33.66;101522.78;10483742;28;20107;-78
2022/06/15 15:05:46;;;;;;;8.23;3.22;;;;;;;27.19;33.52;101529.66;10471023;28;20068;-78
2022/06/15 15:10:50;;;;;;;6.70;2.33;;;;;;;26.89;33.80;101515.63;10485390;28;20047;-79
2022/06/15 15:15:55;;;;;;;5.28;2.97;;;;;;;26.95;36.56;101529.88;10473429;28;20058;-79
2022/06/15 15:20:56;;;;;;;7.30;3.22;;;;;;;27.00;39.23;101527.16;10494914;28;20487;-78
2022/06/15 15:25:57;;;;;;;5.15;3.30;;;;;;;26.73;33.85;101517.53;10469326;28;20041;-78
2022/06/15 15:41:43;;;;;;;5.00;2.60;;;;;;;26.38;38.48;101525.00;10427938;28;20044;-79
2022/06/15 15:46:43;;;;;;;8.07;3.23;;;;;;;26.72;39.37;101511.28;10451458;28;20067;-79
2022/06/15 15:51:44;;;;;;;6.03;3.50;;;;;;;26.82;35.34;101512.06;10485025;28;20072;-79
2022/06/15 15:56:45;;;;;;;5.90;2.70;;;;;;;26.40;36.75;101509.78;10450642;28;20109;-78
2022/06/15 16:01:46;;;;;;;;;;;;;;;26.15;36.87;101498.34;10446656;28;20047;-79
2022/06/15 16:06:47;;;;;;;4.77;2.97;;;;;;;25.99;37.49;101501.09;10467201;28;19939;-78
2022/06/15 16:11:48;;;;;;;6.80;3.30;;;;;;;25.91;38.94;101498.47;10442994;28;20044;-79
2022/06/15 16:16:48;;;;;;;6.00;3.03;;;;;;;25.82;36.94;101494.94;10443526;28;20347;-79
2022/06/15 16:21:49;;;;;;;35.60;23.53;;;;;;;25.49;39.30;101504.06;10442488;28;20063;-79
2022/06/15 16:26:49;;;;;;;8.00;5.63;;;;;;;25.28;39.56;101490.72;10425748;28;20485;-78
2022/06/15 16:31:50;;;;;;;8.20;3.17;;;;;;;24.98;40.51;101484.56;10443274;28;20037;-78
2022/06/15 16:36:51;;;;;;;7.40;3.07;;;;;;;24.72;41.47;101485.47;10425738;28;20045;-78
2022/06/15 16:41:52;;;;;;;6.18;2.97;;;;;;;24.75;41.45;101488.16;10425404;28;20044;-78
2022/06/15 16:46:52;;;;;;;10.33;3.00;;;;;;;24.72;40.47;101490.81;10442976;28;20120;-78
2022/06/15 16:51:53;;;;;;;5.23;3.13;;;;;;;24.75;41.65;101488.16;10439268;28;21194;-79
2022/06/15 16:56:54;;;;;;;6.83;3.53;;;;;;;25.18;39.42;101496.09;10425025;28;20029;-79
2022/06/15 17:01:55;;;;;;;14.70;3.05;;;;;;;25.23;39.77;101493.41;10421743;28;20044;-80
2022/06/15 17:07:04;;;;;;;7.27;4.47;;;;;;;24.88;41.12;101492.59;10424297;28;20047;-78
2022/06/15 17:12:05;;;;;;;5.85;3.10;;;;;;;24.95;41.12;101487.25;10420843;28;20043;-79
2022/06/15 17:17:06;;;;;;;7.82;2.83;;;;;;;24.92;41.24;101490.84;10438584;28;20048;-80
2022/06/15 17:22:06;;;;;;;5.37;3.07;;;;;;;24.89;40.69;101475.66;10423877;28;20029;-80
2022/06/15 17:27:09;;;;;;;7.47;2.67;;;;;;;24.66;40.43;101483.72;10442000;28;20071;-80
2022/06/15 17:32:10;;;;;;;3.78;2.65;;;;;;;23.96;43.00;101491.66;10439750;28;20036;-80
2022/06/15 17:37:10;;;;;;;5.83;3.13;;;;;;;23.50;42.63;101495.09;10441369;28;20149;-80
2022/06/15 17:42:11;;;;;;;6.40;4.57;;;;;;;23.32;44.90;101498.56;10441414;28;20449;-79
2022/06/15 17:47:12;;;;;;;6.53;2.93;;;;;;;23.28;47.31;101495.00;10422089;28;20033;-80
2022/06/15 17:52:12;;;;;;;5.43;2.90;;;;;;;23.28;45.71;101507.44;10438863;28;20041;-80
2022/06/15 17:57:13;;;;;;;9.00;3.60;;;;;;;23.26;44.89;101510.13;10432006;28;20059;-78
2022/06/15 18:02:13;;;;;;;7.00;2.67;;;;;;;23.30;44.12;101500.34;10442047;28;20068;-78
2022/06/15 18:07:14;;;;;;;7.03;2.97;;;;;;;23.28;43.30;101491.44;10422603;28;20370;-79
2022/06/15 18:12:14;;;;;;;15.17;4.13;;;;;;;23.21;43.21;101490.50;10422081;28;20108;-77
2022/06/15 18:17:15;;;;;;;7.10;2.63;;;;;;;23.16;44.74;101490.44;10440229;28;20049;-79
2022/06/15 18:22:16;;;;;;;6.10;2.77;;;;;;;23.04;43.59;101485.03;10439723;28;20048;-78
2022/06/15 18:27:18;;;;;;;8.53;2.90;;;;;;;22.93;44.40;101485.00;10435287;28;20294;-79
2022/06/15 18:32:24;;;;;;;9.20;3.03;;;;;;;22.81;43.51;101492.94;10413405;28;20060;-78
2022/06/15 18:37:25;;;;;;;12.82;5.15;;;;;;;22.65;43.85;101490.16;10379319;28;20137;-80
2022/06/15 18:42:25;;;;;;;8.93;2.80;;;;;;;22.41;45.93;101489.03;10421667;28;20159;-79
2022/06/15 18:47:36;;;;;;;7.20;2.70;;;;;;;22.09;46.78;101491.41;10413869;28;20147;-79
2022/06/15 18:52:37;;;;;;;5.57;2.70;;;;;;;21.75;47.98;101493.72;10397995;28;20080;-79
2022/06/15 18:57:38;;;;;;;3.88;2.38;;;;;;;21.49;48.98;101492.50;10389243;28;20035;-79
2022/06/15 19:02:38;;;;;;;6.10;2.70;;;;;;;21.19;49.75;101492.97;10406105;28;20064;-80
2022/06/15 19:07:39;;;;;;;8.93;3.77;;;;;;;20.94;49.98;101490.88;10407599;28;20128;-79
2022/06/15 19:12:39;;;;;;;9.50;2.87;;;;;;;20.46;52.94;101492.75;10406240;28;20061;-79
2022/06/15 19:17:40;;;;;;;4.35;3.03;;;;;;;19.98;56.32;101493.66;10385850;28;20102;-79
2022/06/15 19:22:41;;;;;;;6.67;2.83;;;;;;;19.59;57.81;101493.78;10388677;28;20083;-78
2022/06/15 19:27:42;;;;;;;10.23;4.45;;;;;;;19.25;58.33;101482.47;10403945;28;20053;-81
2022/06/15 19:32:43;;;;;;;4.85;2.50;;;;;;;18.83;58.89;101486.81;10404624;28;20072;-82
2022/06/15 19:37:44;;;;;;;6.25;3.22;;;;;;;18.43;61.03;101485.84;10388968;28;20073;-82
2022/06/15 19:42:45;;;;;;;7.13;4.47;;;;;;;18.25;61.37;101510.09;10404293;28;20050;-81
2022/06/15 19:47:46;;;;;;;5.03;2.80;;;;;;;18.16;62.25;101521.38;10422107;28;20228;-82
2022/06/15 19:52:47;;;;;;;5.43;3.38;;;;;;;18.17;63.53;101526.69;10363320;28;20084;-82
2022/06/15 19:57:47;;;;;;;5.95;3.05;;;;;;;18.08;64.97;101533.50;10347241;28;20034;-82
2022/06/15 20:02:51;;;;;;;4.53;3.28;;;;;;;17.81;65.93;101538.03;10347359;28;20095;-82
2022/06/15 20:07:52;;;;;;;6.78;3.28;;;;;;;17.46;67.98;101545.81;10346618;28;20486;-82
2022/06/15 20:12:53;;;;;;;3.90;2.88;;;;;;;17.04;67.90;101552.50;10439789;28;20115;-82
2022/06/15 20:17:55;;;;;;;4.55;3.20;;;;;;;16.79;67.76;101556.03;10444732;28;20047;-82
2022/06/15 20:22:56;;;;;;;7.50;3.72;;;;;;;16.59;69.04;101564.19;10414046;28;20044;-82
2022/06/15 20:28:02;;;;;;;10.73;4.07;;;;;;;16.40;69.57;101573.25;10444235;28;20385;-82
2022/06/15 20:33:02;;;;;;;6.75;3.60;;;;;;;16.37;70.40;101573.13;10427155;28;20385;-82
2022/06/15 20:38:03;;;;;;;6.97;4.15;;;;;;;16.46;72.86;101584.03;10444942;28;20033;-82
2022/06/15 20:43:05;;;;;;;4.82;3.35;;;;;;;16.47;71.49;101579.63;10445164;28;20612;-82
2022/06/15 20:48:06;;;;;;;10.43;4.00;;;;;;;16.43;71.59;101576.00;10444871;28;20033;-82
2022/06/15 20:53:07;;;;;;;10.73;5.20;;;;;;;16.33;73.19;101593.25;10426623;28;20045;-82
2022/06/15 20:58:07;;;;;;;7.53;4.80;;;;;;;16.29;71.91;101594.91;10418986;28;20029;-82
2022/06/15 21:03:08;;;;;;;7.68;3.97;;;;;;;16.20;71.21;101588.38;10444090;28;20049;-82
2022/06/15 21:08:08;;;;;;;5.18;4.00;;;;;;;16.01;71.03;101592.97;10445131;28;20067;-82
2022/06/15 21:18:28;;;;;;;6.20;4.20;;;;;;;15.51;72.77;101603.41;10443225;28;20500;-82
2022/06/15 21:23:29;;;;;;;6.63;4.45;;;;;;;15.35;73.34;101600.16;10442569;28;20033;-82
2022/06/15 21:28:31;;;;;;;7.43;4.65;;;;;;;15.18;74.55;101596.81;10444006;28;20083;-82
2022/06/15 21:33:32;;;;;;;8.82;5.15;;;;;;;14.97;73.93;101602.13;10441839;28;20044;-82
2022/06/15 21:38:32;;;;;;;6.78;3.92;;;;;;;14.84;74.99;101613.88;10417261;28;20528;-82
2022/06/15 21:43:33;;;;;;;6.00;3.97;;;;;;;14.82;74.95;101613.84;10442028;28;20072;-82
2022/06/15 21:48:34;;;;;;;7.20;3.80;;;;;;;14.77;74.42;101614.47;10425350;28;20033;-82
2022/06/15 21:53:36;;;;;;;7.47;3.55;;;;;;;14.98;72.08;101623.25;10440610;28;20041;-83
2022/06/15 21:58:37;;;;;;;7.55;3.85;;;;;;;15.16;71.23;101618.72;10442870;28;20029;-82
2022/06/15 22:03:37;;;;;;;7.60;4.07;;;;;;;15.10;71.63;101621.97;10441153;28;20065;-82
2022/06/15 22:08:38;;;;;;;7.00;3.45;;;;;;;15.15;72.91;101619.53;10443099;28;20030;-82
2022/06/15 22:13:39;;;;;;;6.85;3.38;;;;;;;15.12;73.52;101623.84;10422828;28;20469;-83
2022/06/15 22:18:40;;;;;;;8.63;3.45;;;;;;;15.14;74.01;101623.91;10407997;28;20041;-82
2022/06/15 22:23:40;;;;;;;8.60;3.80;;;;;;;15.34;72.73;101637.91;10458095;28;20033;-82
2022/06/15 22:28:41;;;;;;;6.65;3.05;;;;;;;15.68;71.12;101644.53;10483008;28;20113;-82
2022/06/15 22:33:41;;;;;;;7.20;3.55;;;;;;;15.81;70.63;101630.06;10474408;28;20036;-82
2022/06/15 22:38:43;;;;;;;10.32;3.58;;;;;;;16.08;68.13;101624.03;10468973;28;20485;-82
2022/06/15 22:43:44;;;;;;;;;;;;;;;16.32;67.62;101633.72;10431186;28;20033;-83
2022/06/15 22:54:03;;;;;;;6.75;4.20;;;;;;;16.28;66.45;101630.06;10442027;28;20037;-83
2022/06/15 22:59:04;;;;;;;7.55;4.75;;;;;;;16.40;65.66;101615.50;10430509;28;20381;-82
2022/06/15 23:04:05;;;;;;;15.82;4.07;;;;;;;16.41;65.25;101615.56;10453188;28;20361;-83
2022/06/15 23:09:07;;;;;;;7.10;3.47;;;;;;;16.24;66.15;101635.19;10470666;28;20177;-83
2022/06/15 23:14:08;;;;;;;5.47;4.10;;;;;;;15.98;66.64;101638.66;10449451;28;20502;-83
2022/06/15 23:19:08;;;;;;;5.35;3.30;;;;;;;15.73;67.55;101633.25;10431091;28;20106;-83
2022/06/15 23:24:09;;;;;;;9.80;4.28;;;;;;;15.52;68.72;101636.84;10451558;28;20039;-83
2022/06/15 23:29:09;;;;;;;5.38;3.80;;;;;;;15.24;69.84;101647.16;10470697;28;20037;-83
2022/06/15 23:34:10;;;;;;;10.98;4.22;;;;;;;15.03;70.25;101641.94;10466912;28;20124;-83
2022/06/15 23:39:10;;;;;;;6.88;4.40;;;;;;;14.94;70.13;101629.25;10488127;28;20043;-82
2022/06/15 23:44:11;;;;;;;7.72;4.07;;;;;;;15.04;69.80;101629.63;10447937;28;20075;-82
2022/06/15 23:49:11;;;;;;;10.25;3.83;;;;;;;14.95;69.68;101636.31;10428918;28;20045;-80
2022/06/15 23:54:12;;;;;;;10.43;4.47;;;;;;;15.01;69.77;101635.69;10468807;28;20054;-83
2022/06/15 23:59:12;;;;;;;12.70;4.57;;;;;;;14.98;69.48;101627.66;10469638;28;20079;-83
